sensor_id;sensor_type;location;lat;lon;timestamp;pressure;altitude;pressure_sealevel;temperature
12875;BMP180;6505;51.114;13.128;2023-07-02T00:00:28;98542.00;;;26.20
12875;BMP180;6505;51.114;13.128;2023-07-02T00:02:59;98542.00;;;26.10
12875;BMP180;6505;51.114;13.128;2023-07-02T00:05:27;98529.00;;;26.10
12875;BMP180;6505;51.114;13.128;2023-07-02T00:07:55;98537.00;;;26.10
12875;BMP180;6505;51.114;13.128;2023-07-02T00:10:23;98539.00;;;26.10
12875;BMP180;6505;51.114;13.128;2023-07-02T00:12:51;98539.00;;;26.10
12875;BMP180;6505;51.114;13.128;2023-07-02T00:15:19;98537.00;;;26.10
12875;BMP180;6505;51.114;13.128;2023-07-02T00:17:47;98529.00;;;26.10
12875;BMP180;6505;51.114;13.128;2023-07-02T00:20:16;98538.00;;;26.10
12875;BMP180;6505;51.114;13.128;2023-07-02T00:22:48;98541.00;;;26.10
12875;BMP180;6505;51.114;13.128;2023-07-02T00:25:16;98536.00;;;26.10
12875;BMP180;6505;51.114;13.128;2023-07-02T00:27:44;98542.00;;;26.00
12875;BMP180;6505;51.114;13.128;2023-07-02T00:30:13;98544.00;;;26.00
12875;BMP180;6505;51.114;13.128;2023-07-02T00:32:41;98540.00;;;26.00
12875;BMP180;6505;51.114;13.128;2023-07-02T00:35:10;98537.00;;;26.00
12875;BMP180;6505;51.114;13.128;2023-07-02T00:37:39;98543.00;;;26.00
12875;BMP180;6505;51.114;13.128;2023-07-02T00:40:08;98545.00;;;26.00
12875;BMP180;6505;51.114;13.128;2023-07-02T00:42:36;98551.00;;;26.00
12875;BMP180;6505;51.114;13.128;2023-07-02T00:45:06;98540.00;;;25.90
12875;BMP180;6505;51.114;13.128;2023-07-02T00:47:35;98548.00;;;25.90
12875;BMP180;6505;51.114;13.128;2023-07-02T00:50:05;98546.00;;;25.90
12875;BMP180;6505;51.114;13.128;2023-07-02T00:52:33;98546.00;;;25.90
12875;BMP180;6505;51.114;13.128;2023-07-02T00:55:02;98536.00;;;25.90
12875;BMP180;6505;51.114;13.128;2023-07-02T00:57:30;98553.00;;;25.90
12875;BMP180;6505;51.114;13.128;2023-07-02T00:59:59;98535.00;;;25.90
12875;BMP180;6505;51.114;13.128;2023-07-02T01:02:28;98544.00;;;25.90
12875;BMP180;6505;51.114;13.128;2023-07-02T01:04:57;98535.00;;;25.90
12875;BMP180;6505;51.114;13.128;2023-07-02T01:07:27;98545.00;;;25.90
12875;BMP180;6505;51.114;13.128;2023-07-02T01:09:55;98543.00;;;25.90
12875;BMP180;6505;51.114;13.128;2023-07-02T01:12:26;98538.00;;;25.80
12875;BMP180;6505;51.114;13.128;2023-07-02T01:14:59;98542.00;;;25.80
12875;BMP180;6505;51.114;13.128;2023-07-02T01:17:32;98536.00;;;25.80
12875;BMP180;6505;51.114;13.128;2023-07-02T01:20:10;98539.00;;;25.80
12875;BMP180;6505;51.114;13.128;2023-07-02T01:22:38;98529.00;;;25.80
12875;BMP180;6505;51.114;13.128;2023-07-02T01:25:07;98531.00;;;25.80
12875;BMP180;6505;51.114;13.128;2023-07-02T01:27:37;98529.00;;;25.80
12875;BMP180;6505;51.114;13.128;2023-07-02T01:30:08;98530.00;;;25.80
12875;BMP180;6505;51.114;13.128;2023-07-02T01:32:37;98529.00;;;25.80
12875;BMP180;6505;51.114;13.128;2023-07-02T01:35:08;98534.00;;;25.80
12875;BMP180;6505;51.114;13.128;2023-07-02T01:37:36;98529.00;;;25.80
12875;BMP180;6505;51.114;13.128;2023-07-02T01:40:07;98529.00;;;25.80
12875;BMP180;6505;51.114;13.128;2023-07-02T01:42:36;98527.00;;;25.80
12875;BMP180;6505;51.114;13.128;2023-07-02T01:45:05;98526.00;;;25.80
12875;BMP180;6505;51.114;13.128;2023-07-02T01:47:33;98527.00;;;25.80
12875;BMP180;6505;51.114;13.128;2023-07-02T01:50:04;98525.00;;;25.70
12875;BMP180;6505;51.114;13.128;2023-07-02T01:52:34;98523.00;;;25.70
12875;BMP180;6505;51.114;13.128;2023-07-02T01:55:02;98525.00;;;25.70
12875;BMP180;6505;51.114;13.128;2023-07-02T01:57:31;98529.00;;;25.70
12875;BMP180;6505;51.114;13.128;2023-07-02T01:59:59;98537.00;;;25.70
12875;BMP180;6505;51.114;13.128;2023-07-02T02:02:26;98530.00;;;25.70
12875;BMP180;6505;51.114;13.128;2023-07-02T02:04:55;98530.00;;;25.70
12875;BMP180;6505;51.114;13.128;2023-07-02T02:07:24;98537.00;;;25.70
12875;BMP180;6505;51.114;13.128;2023-07-02T02:09:54;98530.00;;;25.70
12875;BMP180;6505;51.114;13.128;2023-07-02T02:12:22;98537.00;;;25.70
12875;BMP180;6505;51.114;13.128;2023-07-02T02:14:50;98530.00;;;25.70
12875;BMP180;6505;51.114;13.128;2023-07-02T02:17:18;98541.00;;;25.70
12875;BMP180;6505;51.114;13.128;2023-07-02T02:19:46;98546.00;;;25.70
12875;BMP180;6505;51.114;13.128;2023-07-02T02:22:14;98539.00;;;25.70
12875;BMP180;6505;51.114;13.128;2023-07-02T02:24:42;98545.00;;;25.60
12875;BMP180;6505;51.114;13.128;2023-07-02T02:27:11;98544.00;;;25.60
12875;BMP180;6505;51.114;13.128;2023-07-02T02:29:39;98545.00;;;25.60
12875;BMP180;6505;51.114;13.128;2023-07-02T02:32:08;98556.00;;;25.60
12875;BMP180;6505;51.114;13.128;2023-07-02T02:34:36;98544.00;;;25.60
12875;BMP180;6505;51.114;13.128;2023-07-02T02:37:04;98543.00;;;25.60
12875;BMP180;6505;51.114;13.128;2023-07-02T02:39:32;98543.00;;;25.60
12875;BMP180;6505;51.114;13.128;2023-07-02T02:42:00;98549.00;;;25.60
12875;BMP180;6505;51.114;13.128;2023-07-02T02:44:29;98548.00;;;25.60
12875;BMP180;6505;51.114;13.128;2023-07-02T02:46:59;98549.00;;;25.60
12875;BMP180;6505;51.114;13.128;2023-07-02T02:49:29;98552.00;;;25.60
12875;BMP180;6505;51.114;13.128;2023-07-02T02:51:57;98555.00;;;25.60
12875;BMP180;6505;51.114;13.128;2023-07-02T02:54:25;98552.00;;;25.60
12875;BMP180;6505;51.114;13.128;2023-07-02T02:56:53;98546.00;;;25.60
12875;BMP180;6505;51.114;13.128;2023-07-02T02:59:21;98546.00;;;25.60
12875;BMP180;6505;51.114;13.128;2023-07-02T03:01:50;98557.00;;;25.50
12875;BMP180;6505;51.114;13.128;2023-07-02T03:04:19;98554.00;;;25.50
12875;BMP180;6505;51.114;13.128;2023-07-02T03:06:51;98555.00;;;25.50
12875;BMP180;6505;51.114;13.128;2023-07-02T03:09:20;98556.00;;;25.50
12875;BMP180;6505;51.114;13.128;2023-07-02T03:11:48;98557.00;;;25.50
12875;BMP180;6505;51.114;13.128;2023-07-02T03:14:16;98550.00;;;25.50
12875;BMP180;6505;51.114;13.128;2023-07-02T03:16:44;98555.00;;;25.50
12875;BMP180;6505;51.114;13.128;2023-07-02T03:19:14;98556.00;;;25.50
12875;BMP180;6505;51.114;13.128;2023-07-02T03:21:44;98554.00;;;25.50
12875;BMP180;6505;51.114;13.128;2023-07-02T03:24:12;98556.00;;;25.50
12875;BMP180;6505;51.114;13.128;2023-07-02T03:26:40;98542.00;;;25.50
12875;BMP180;6505;51.114;13.128;2023-07-02T03:29:09;98559.00;;;25.50
12875;BMP180;6505;51.114;13.128;2023-07-02T03:31:37;98561.00;;;25.50
12875;BMP180;6505;51.114;13.128;2023-07-02T03:34:08;98563.00;;;25.50
12875;BMP180;6505;51.114;13.128;2023-07-02T03:36:38;98569.00;;;25.50
12875;BMP180;6505;51.114;13.128;2023-07-02T03:39:06;98577.00;;;25.50
12875;BMP180;6505;51.114;13.128;2023-07-02T03:41:36;98574.00;;;25.50
12875;BMP180;6505;51.114;13.128;2023-07-02T03:44:04;98574.00;;;25.50
12875;BMP180;6505;51.114;13.128;2023-07-02T03:46:32;98572.00;;;25.50
12875;BMP180;6505;51.114;13.128;2023-07-02T03:49:01;98589.00;;;25.50
12875;BMP180;6505;51.114;13.128;2023-07-02T03:51:29;98599.00;;;25.50
12875;BMP180;6505;51.114;13.128;2023-07-02T03:53:59;98594.00;;;25.40
12875;BMP180;6505;51.114;13.128;2023-07-02T03:56:27;98597.00;;;25.40
12875;BMP180;6505;51.114;13.128;2023-07-02T03:58:55;98607.00;;;25.40
12875;BMP180;6505;51.114;13.128;2023-07-02T04:01:23;98606.00;;;25.40
12875;BMP180;6505;51.114;13.128;2023-07-02T04:03:53;98612.00;;;25.40
12875;BMP180;6505;51.114;13.128;2023-07-02T04:06:21;98612.00;;;25.40
12875;BMP180;6505;51.114;13.128;2023-07-02T04:08:49;98627.00;;;25.40
12875;BMP180;6505;51.114;13.128;2023-07-02T04:11:19;98604.00;;;25.40
12875;BMP180;6505;51.114;13.128;2023-07-02T04:13:46;98627.00;;;25.40
12875;BMP180;6505;51.114;13.128;2023-07-02T04:16:15;98623.00;;;25.40
12875;BMP180;6505;51.114;13.128;2023-07-02T04:18:42;98635.00;;;25.40
12875;BMP180;6505;51.114;13.128;2023-07-02T04:21:10;98629.00;;;25.40
12875;BMP180;6505;51.114;13.128;2023-07-02T04:23:38;98637.00;;;25.40
12875;BMP180;6505;51.114;13.128;2023-07-02T04:26:06;98631.00;;;25.40
12875;BMP180;6505;51.114;13.128;2023-07-02T04:28:45;98623.00;;;25.40
12875;BMP180;6505;51.114;13.128;2023-07-02T04:31:13;98632.00;;;25.40
12875;BMP180;6505;51.114;13.128;2023-07-02T04:33:41;98632.00;;;25.40
12875;BMP180;6505;51.114;13.128;2023-07-02T04:36:09;98617.00;;;25.40
12875;BMP180;6505;51.114;13.128;2023-07-02T04:38:37;98625.00;;;25.30
12875;BMP180;6505;51.114;13.128;2023-07-02T04:41:06;98626.00;;;25.30
12875;BMP180;6505;51.114;13.128;2023-07-02T04:43:36;98632.00;;;25.30
12875;BMP180;6505;51.114;13.128;2023-07-02T04:46:06;98631.00;;;25.30
12875;BMP180;6505;51.114;13.128;2023-07-02T04:48:34;98636.00;;;25.30
12875;BMP180;6505;51.114;13.128;2023-07-02T04:51:03;98637.00;;;25.30
12875;BMP180;6505;51.114;13.128;2023-07-02T04:53:31;98647.00;;;25.30
12875;BMP180;6505;51.114;13.128;2023-07-02T04:55:59;98656.00;;;25.30
12875;BMP180;6505;51.114;13.128;2023-07-02T04:58:27;98653.00;;;25.30
12875;BMP180;6505;51.114;13.128;2023-07-02T05:00:55;98657.00;;;25.30
12875;BMP180;6505;51.114;13.128;2023-07-02T05:03:26;98659.00;;;25.30
12875;BMP180;6505;51.114;13.128;2023-07-02T05:05:54;98663.00;;;25.30
12875;BMP180;6505;51.114;13.128;2023-07-02T05:08:22;98662.00;;;25.30
12875;BMP180;6505;51.114;13.128;2023-07-02T05:10:50;98657.00;;;25.30
12875;BMP180;6505;51.114;13.128;2023-07-02T05:13:18;98656.00;;;25.30
12875;BMP180;6505;51.114;13.128;2023-07-02T05:15:46;98660.00;;;25.30
12875;BMP180;6505;51.114;13.128;2023-07-02T05:18:14;98668.00;;;25.30
12875;BMP180;6505;51.114;13.128;2023-07-02T05:20:43;98666.00;;;25.30
12875;BMP180;6505;51.114;13.128;2023-07-02T05:23:12;98665.00;;;25.30
12875;BMP180;6505;51.114;13.128;2023-07-02T05:25:40;98666.00;;;25.30
12875;BMP180;6505;51.114;13.128;2023-07-02T05:28:07;98668.00;;;25.30
12875;BMP180;6505;51.114;13.128;2023-07-02T05:30:36;98668.00;;;25.30
12875;BMP180;6505;51.114;13.128;2023-07-02T05:33:04;98661.00;;;25.30
12875;BMP180;6505;51.114;13.128;2023-07-02T05:35:32;98666.00;;;25.30
12875;BMP180;6505;51.114;13.128;2023-07-02T05:38:01;98674.00;;;25.30
12875;BMP180;6505;51.114;13.128;2023-07-02T05:40:29;98666.00;;;25.30
12875;BMP180;6505;51.114;13.128;2023-07-02T05:42:57;98657.00;;;25.30
12875;BMP180;6505;51.114;13.128;2023-07-02T05:45:25;98661.00;;;25.30
12875;BMP180;6505;51.114;13.128;2023-07-02T05:47:54;98669.00;;;25.30
12875;BMP180;6505;51.114;13.128;2023-07-02T05:50:23;98676.00;;;25.30
12875;BMP180;6505;51.114;13.128;2023-07-02T05:52:51;98679.00;;;25.30
12875;BMP180;6505;51.114;13.128;2023-07-02T05:55:21;98685.00;;;25.30
12875;BMP180;6505;51.114;13.128;2023-07-02T05:57:49;98680.00;;;25.30
12875;BMP180;6505;51.114;13.128;2023-07-02T06:00:17;98691.00;;;25.30
12875;BMP180;6505;51.114;13.128;2023-07-02T06:02:46;98691.00;;;25.30
12875;BMP180;6505;51.114;13.128;2023-07-02T06:05:14;98700.00;;;25.40
12875;BMP180;6505;51.114;13.128;2023-07-02T06:07:42;98704.00;;;25.40
12875;BMP180;6505;51.114;13.128;2023-07-02T06:10:10;98699.00;;;25.40
12875;BMP180;6505;51.114;13.128;2023-07-02T06:12:40;98710.00;;;25.30
12875;BMP180;6505;51.114;13.128;2023-07-02T06:15:09;98695.00;;;25.40
12875;BMP180;6505;51.114;13.128;2023-07-02T06:17:37;98708.00;;;25.40
12875;BMP180;6505;51.114;13.128;2023-07-02T06:20:07;98707.00;;;25.40
12875;BMP180;6505;51.114;13.128;2023-07-02T06:22:35;98710.00;;;25.40
12875;BMP180;6505;51.114;13.128;2023-07-02T06:25:04;98708.00;;;25.40
12875;BMP180;6505;51.114;13.128;2023-07-02T06:27:32;98709.00;;;25.40
12875;BMP180;6505;51.114;13.128;2023-07-02T06:30:01;98716.00;;;25.40
12875;BMP180;6505;51.114;13.128;2023-07-02T06:32:29;98711.00;;;25.50
12875;BMP180;6505;51.114;13.128;2023-07-02T06:34:57;98709.00;;;25.50
12875;BMP180;6505;51.114;13.128;2023-07-02T06:37:26;98707.00;;;25.50
12875;BMP180;6505;51.114;13.128;2023-07-02T06:39:53;98711.00;;;25.50
12875;BMP180;6505;51.114;13.128;2023-07-02T06:42:22;98712.00;;;25.50
12875;BMP180;6505;51.114;13.128;2023-07-02T06:44:50;98713.00;;;25.50
12875;BMP180;6505;51.114;13.128;2023-07-02T06:47:20;98711.00;;;25.50
12875;BMP180;6505;51.114;13.128;2023-07-02T06:49:47;98717.00;;;25.60
12875;BMP180;6505;51.114;13.128;2023-07-02T06:52:15;98708.00;;;25.60
12875;BMP180;6505;51.114;13.128;2023-07-02T06:54:44;98712.00;;;25.60
12875;BMP180;6505;51.114;13.128;2023-07-02T06:57:12;98712.00;;;25.70
12875;BMP180;6505;51.114;13.128;2023-07-02T06:59:40;98715.00;;;25.70
12875;BMP180;6505;51.114;13.128;2023-07-02T07:02:08;98713.00;;;25.70
12875;BMP180;6505;51.114;13.128;2023-07-02T07:04:38;98715.00;;;25.70
12875;BMP180;6505;51.114;13.128;2023-07-02T07:07:06;98721.00;;;25.80
12875;BMP180;6505;51.114;13.128;2023-07-02T07:09:34;98713.00;;;25.80
12875;BMP180;6505;51.114;13.128;2023-07-02T07:12:02;98706.00;;;25.80
12875;BMP180;6505;51.114;13.128;2023-07-02T07:14:30;98708.00;;;25.80
12875;BMP180;6505;51.114;13.128;2023-07-02T07:16:58;98712.00;;;25.90
12875;BMP180;6505;51.114;13.128;2023-07-02T07:19:26;98707.00;;;25.90
12875;BMP180;6505;51.114;13.128;2023-07-02T07:21:55;98715.00;;;25.90
12875;BMP180;6505;51.114;13.128;2023-07-02T07:24:24;98712.00;;;25.90
12875;BMP180;6505;51.114;13.128;2023-07-02T07:26:52;98702.00;;;26.00
12875;BMP180;6505;51.114;13.128;2023-07-02T07:29:21;98710.00;;;26.00
12875;BMP180;6505;51.114;13.128;2023-07-02T07:31:49;98709.00;;;26.00
12875;BMP180;6505;51.114;13.128;2023-07-02T07:34:17;98712.00;;;26.10
12875;BMP180;6505;51.114;13.128;2023-07-02T07:36:45;98714.00;;;26.10
12875;BMP180;6505;51.114;13.128;2023-07-02T07:39:14;98708.00;;;26.10
12875;BMP180;6505;51.114;13.128;2023-07-02T07:41:46;98709.00;;;26.10
12875;BMP180;6505;51.114;13.128;2023-07-02T07:44:15;98717.00;;;26.20
12875;BMP180;6505;51.114;13.128;2023-07-02T07:46:43;98710.00;;;26.20
12875;BMP180;6505;51.114;13.128;2023-07-02T07:49:13;98726.00;;;26.20
12875;BMP180;6505;51.114;13.128;2023-07-02T07:51:41;98714.00;;;26.20
12875;BMP180;6505;51.114;13.128;2023-07-02T07:54:09;98718.00;;;26.30
12875;BMP180;6505;51.114;13.128;2023-07-02T07:56:38;98724.00;;;26.30
12875;BMP180;6505;51.114;13.128;2023-07-02T07:59:06;98723.00;;;26.40
12875;BMP180;6505;51.114;13.128;2023-07-02T08:01:34;98717.00;;;26.40
12875;BMP180;6505;51.114;13.128;2023-07-02T08:04:02;98723.00;;;26.40
12875;BMP180;6505;51.114;13.128;2023-07-02T08:09:18;98726.00;;;26.50
12875;BMP180;6505;51.114;13.128;2023-07-02T08:11:48;98724.00;;;26.50
12875;BMP180;6505;51.114;13.128;2023-07-02T08:14:17;98719.00;;;26.60
12875;BMP180;6505;51.114;13.128;2023-07-02T08:16:45;98720.00;;;26.60
12875;BMP180;6505;51.114;13.128;2023-07-02T08:19:13;98720.00;;;26.70
12875;BMP180;6505;51.114;13.128;2023-07-02T08:21:41;98731.00;;;26.70
12875;BMP180;6505;51.114;13.128;2023-07-02T08:24:09;98733.00;;;26.80
12875;BMP180;6505;51.114;13.128;2023-07-02T08:26:37;98728.00;;;26.80
12875;BMP180;6505;51.114;13.128;2023-07-02T08:29:06;98732.00;;;26.90
12875;BMP180;6505;51.114;13.128;2023-07-02T08:31:34;98736.00;;;26.90
12875;BMP180;6505;51.114;13.128;2023-07-02T08:34:02;98730.00;;;27.00
12875;BMP180;6505;51.114;13.128;2023-07-02T08:36:30;98714.00;;;27.00
12875;BMP180;6505;51.114;13.128;2023-07-02T08:38:58;98721.00;;;27.00
12875;BMP180;6505;51.114;13.128;2023-07-02T08:41:26;98726.00;;;27.10
12875;BMP180;6505;51.114;13.128;2023-07-02T08:43:59;98725.00;;;27.10
12875;BMP180;6505;51.114;13.128;2023-07-02T08:46:32;98728.00;;;27.20
12875;BMP180;6505;51.114;13.128;2023-07-02T08:49:00;98730.00;;;27.20
12875;BMP180;6505;51.114;13.128;2023-07-02T08:51:29;98724.00;;;27.30
12875;BMP180;6505;51.114;13.128;2023-07-02T08:53:56;98731.00;;;27.30
12875;BMP180;6505;51.114;13.128;2023-07-02T08:56:24;98729.00;;;27.30
12875;BMP180;6505;51.114;13.128;2023-07-02T08:58:53;98730.00;;;27.40
12875;BMP180;6505;51.114;13.128;2023-07-02T09:01:21;98734.00;;;27.40
12875;BMP180;6505;51.114;13.128;2023-07-02T09:03:51;98739.00;;;27.40
12875;BMP180;6505;51.114;13.128;2023-07-02T09:06:19;98736.00;;;27.50
12875;BMP180;6505;51.114;13.128;2023-07-02T09:08:47;98736.00;;;27.50
12875;BMP180;6505;51.114;13.128;2023-07-02T09:11:15;98741.00;;;27.60
12875;BMP180;6505;51.114;13.128;2023-07-02T09:13:47;98750.00;;;27.60
12875;BMP180;6505;51.114;13.128;2023-07-02T09:16:27;98748.00;;;27.60
12875;BMP180;6505;51.114;13.128;2023-07-02T09:19:02;98745.00;;;27.60
12875;BMP180;6505;51.114;13.128;2023-07-02T09:21:43;98748.00;;;27.70
12875;BMP180;6505;51.114;13.128;2023-07-02T09:24:16;98754.00;;;27.70
12875;BMP180;6505;51.114;13.128;2023-07-02T09:26:46;98752.00;;;27.80
12875;BMP180;6505;51.114;13.128;2023-07-02T09:29:18;98753.00;;;27.80
12875;BMP180;6505;51.114;13.128;2023-07-02T09:31:49;98753.00;;;27.80
12875;BMP180;6505;51.114;13.128;2023-07-02T09:34:38;98749.00;;;27.80
12875;BMP180;6505;51.114;13.128;2023-07-02T09:37:07;98750.00;;;27.80
12875;BMP180;6505;51.114;13.128;2023-07-02T09:39:36;98754.00;;;27.90
12875;BMP180;6505;51.114;13.128;2023-07-02T09:42:06;98746.00;;;27.90
12875;BMP180;6505;51.114;13.128;2023-07-02T09:44:36;98750.00;;;27.90
12875;BMP180;6505;51.114;13.128;2023-07-02T09:47:07;98755.00;;;27.90
12875;BMP180;6505;51.114;13.128;2023-07-02T09:49:39;98751.00;;;27.90
12875;BMP180;6505;51.114;13.128;2023-07-02T09:52:09;98761.00;;;27.90
12875;BMP180;6505;51.114;13.128;2023-07-02T09:54:38;98756.00;;;27.90
12875;BMP180;6505;51.114;13.128;2023-07-02T09:57:06;98755.00;;;27.90
12875;BMP180;6505;51.114;13.128;2023-07-02T09:59:35;98759.00;;;28.00
12875;BMP180;6505;51.114;13.128;2023-07-02T10:02:03;98761.00;;;28.00
12875;BMP180;6505;51.114;13.128;2023-07-02T10:04:42;98749.00;;;27.90
12875;BMP180;6505;51.114;13.128;2023-07-02T10:07:12;98755.00;;;28.00
12875;BMP180;6505;51.114;13.128;2023-07-02T10:09:43;98753.00;;;28.00
12875;BMP180;6505;51.114;13.128;2023-07-02T10:12:17;98750.00;;;28.00
12875;BMP180;6505;51.114;13.128;2023-07-02T10:14:46;98738.00;;;28.00
12875;BMP180;6505;51.114;13.128;2023-07-02T10:17:26;98752.00;;;28.00
12875;BMP180;6505;51.114;13.128;2023-07-02T10:19:59;98753.00;;;28.00
12875;BMP180;6505;51.114;13.128;2023-07-02T10:22:28;98750.00;;;28.00
12875;BMP180;6505;51.114;13.128;2023-07-02T10:24:57;98739.00;;;28.10
12875;BMP180;6505;51.114;13.128;2023-07-02T10:27:36;98739.00;;;28.00
12875;BMP180;6505;51.114;13.128;2023-07-02T10:30:06;98754.00;;;28.00
12875;BMP180;6505;51.114;13.128;2023-07-02T10:32:37;98750.00;;;28.10
12875;BMP180;6505;51.114;13.128;2023-07-02T10:35:15;98761.00;;;28.00
12875;BMP180;6505;51.114;13.128;2023-07-02T10:37:44;98768.00;;;28.10
12875;BMP180;6505;51.114;13.128;2023-07-02T10:40:13;98759.00;;;28.10
12875;BMP180;6505;51.114;13.128;2023-07-02T10:42:49;98754.00;;;28.10
12875;BMP180;6505;51.114;13.128;2023-07-02T10:45:18;98767.00;;;28.10
12875;BMP180;6505;51.114;13.128;2023-07-02T10:47:46;98756.00;;;28.10
12875;BMP180;6505;51.114;13.128;2023-07-02T10:50:18;98764.00;;;28.10
12875;BMP180;6505;51.114;13.128;2023-07-02T10:52:48;98750.00;;;28.10
12875;BMP180;6505;51.114;13.128;2023-07-02T10:55:18;98761.00;;;28.10
12875;BMP180;6505;51.114;13.128;2023-07-02T10:57:47;98754.00;;;28.10
12875;BMP180;6505;51.114;13.128;2023-07-02T11:00:15;98748.00;;;28.20
12875;BMP180;6505;51.114;13.128;2023-07-02T11:02:43;98746.00;;;28.20
12875;BMP180;6505;51.114;13.128;2023-07-02T11:05:11;98726.00;;;28.20
12875;BMP180;6505;51.114;13.128;2023-07-02T11:07:43;98740.00;;;28.20
12875;BMP180;6505;51.114;13.128;2023-07-02T11:10:19;98746.00;;;28.10
12875;BMP180;6505;51.114;13.128;2023-07-02T11:12:47;98750.00;;;28.20
12875;BMP180;6505;51.114;13.128;2023-07-02T11:15:17;98753.00;;;28.20
12875;BMP180;6505;51.114;13.128;2023-07-02T11:17:46;98760.00;;;28.20
12875;BMP180;6505;51.114;13.128;2023-07-02T11:20:14;98756.00;;;28.20
12875;BMP180;6505;51.114;13.128;2023-07-02T11:22:44;98757.00;;;28.20
12875;BMP180;6505;51.114;13.128;2023-07-02T11:25:17;98762.00;;;28.20
12875;BMP180;6505;51.114;13.128;2023-07-02T11:27:46;98753.00;;;28.20
12875;BMP180;6505;51.114;13.128;2023-07-02T11:30:14;98740.00;;;28.20
12875;BMP180;6505;51.114;13.128;2023-07-02T11:32:50;98745.00;;;28.20
12875;BMP180;6505;51.114;13.128;2023-07-02T11:35:20;98740.00;;;28.20
12875;BMP180;6505;51.114;13.128;2023-07-02T11:37:50;98747.00;;;28.20
12875;BMP180;6505;51.114;13.128;2023-07-02T11:40:18;98743.00;;;28.20
12875;BMP180;6505;51.114;13.128;2023-07-02T11:42:47;98751.00;;;28.20
12875;BMP180;6505;51.114;13.128;2023-07-02T11:45:14;98757.00;;;28.20
12875;BMP180;6505;51.114;13.128;2023-07-02T11:47:42;98751.00;;;28.20
12875;BMP180;6505;51.114;13.128;2023-07-02T11:50:10;98744.00;;;28.20
12875;BMP180;6505;51.114;13.128;2023-07-02T11:52:53;98748.00;;;28.20
12875;BMP180;6505;51.114;13.128;2023-07-02T11:55:22;98751.00;;;28.20
12875;BMP180;6505;51.114;13.128;2023-07-02T11:57:50;98760.00;;;28.20
12875;BMP180;6505;51.114;13.128;2023-07-02T12:00:18;98757.00;;;28.20
12875;BMP180;6505;51.114;13.128;2023-07-02T12:02:46;98754.00;;;28.20
12875;BMP180;6505;51.114;13.128;2023-07-02T12:05:14;98754.00;;;28.20
12875;BMP180;6505;51.114;13.128;2023-07-02T12:07:42;98761.00;;;28.20
12875;BMP180;6505;51.114;13.128;2023-07-02T12:10:12;98770.00;;;28.20
12875;BMP180;6505;51.114;13.128;2023-07-02T12:12:40;98766.00;;;28.20
12875;BMP180;6505;51.114;13.128;2023-07-02T12:15:09;98767.00;;;28.20
12875;BMP180;6505;51.114;13.128;2023-07-02T12:17:37;98764.00;;;28.20
12875;BMP180;6505;51.114;13.128;2023-07-02T12:20:06;98775.00;;;28.20
12875;BMP180;6505;51.114;13.128;2023-07-02T12:22:34;98766.00;;;28.20
12875;BMP180;6505;51.114;13.128;2023-07-02T12:25:03;98761.00;;;28.20
12875;BMP180;6505;51.114;13.128;2023-07-02T12:27:32;98767.00;;;28.20
12875;BMP180;6505;51.114;13.128;2023-07-02T12:30:00;98756.00;;;28.20
12875;BMP180;6505;51.114;13.128;2023-07-02T12:32:28;98774.00;;;28.20
12875;BMP180;6505;51.114;13.128;2023-07-02T12:34:57;98774.00;;;28.20
12875;BMP180;6505;51.114;13.128;2023-07-02T12:37:25;98779.00;;;28.20
12875;BMP180;6505;51.114;13.128;2023-07-02T12:39:52;98780.00;;;28.20
12875;BMP180;6505;51.114;13.128;2023-07-02T12:42:20;98782.00;;;28.20
12875;BMP180;6505;51.114;13.128;2023-07-02T12:44:50;98782.00;;;28.20
12875;BMP180;6505;51.114;13.128;2023-07-02T12:47:17;98791.00;;;28.20
12875;BMP180;6505;51.114;13.128;2023-07-02T12:49:45;98781.00;;;28.20
12875;BMP180;6505;51.114;13.128;2023-07-02T12:52:14;98782.00;;;28.20
12875;BMP180;6505;51.114;13.128;2023-07-02T12:54:42;98799.00;;;28.20
12875;BMP180;6505;51.114;13.128;2023-07-02T12:57:09;98797.00;;;28.20
12875;BMP180;6505;51.114;13.128;2023-07-02T12:59:37;98800.00;;;28.20
12875;BMP180;6505;51.114;13.128;2023-07-02T13:02:09;98802.00;;;28.20
12875;BMP180;6505;51.114;13.128;2023-07-02T13:04:38;98810.00;;;28.20
12875;BMP180;6505;51.114;13.128;2023-07-02T13:07:06;98813.00;;;28.20
12875;BMP180;6505;51.114;13.128;2023-07-02T13:09:34;98817.00;;;28.20
12875;BMP180;6505;51.114;13.128;2023-07-02T13:12:03;98804.00;;;28.20
12875;BMP180;6505;51.114;13.128;2023-07-02T13:14:31;98812.00;;;28.20
12875;BMP180;6505;51.114;13.128;2023-07-02T13:16:59;98808.00;;;28.20
12875;BMP180;6505;51.114;13.128;2023-07-02T13:19:31;98795.00;;;28.20
12875;BMP180;6505;51.114;13.128;2023-07-02T13:22:00;98791.00;;;28.20
12875;BMP180;6505;51.114;13.128;2023-07-02T13:24:33;98802.00;;;28.20
12875;BMP180;6505;51.114;13.128;2023-07-02T13:27:05;98810.00;;;28.20
12875;BMP180;6505;51.114;13.128;2023-07-02T13:29:34;98810.00;;;28.20
12875;BMP180;6505;51.114;13.128;2023-07-02T13:32:02;98800.00;;;28.20
12875;BMP180;6505;51.114;13.128;2023-07-02T13:34:32;98812.00;;;28.20
12875;BMP180;6505;51.114;13.128;2023-07-02T13:37:00;98818.00;;;28.20
12875;BMP180;6505;51.114;13.128;2023-07-02T13:39:30;98817.00;;;28.20
12875;BMP180;6505;51.114;13.128;2023-07-02T13:41:58;98816.00;;;28.20
12875;BMP180;6505;51.114;13.128;2023-07-02T13:44:26;98824.00;;;28.20
12875;BMP180;6505;51.114;13.128;2023-07-02T13:46:54;98814.00;;;28.20
12875;BMP180;6505;51.114;13.128;2023-07-02T13:49:22;98811.00;;;28.20
12875;BMP180;6505;51.114;13.128;2023-07-02T13:51:51;98816.00;;;28.20
12875;BMP180;6505;51.114;13.128;2023-07-02T13:54:19;98827.00;;;28.20
12875;BMP180;6505;51.114;13.128;2023-07-02T13:56:47;98822.00;;;28.20
12875;BMP180;6505;51.114;13.128;2023-07-02T13:59:19;98825.00;;;28.20
12875;BMP180;6505;51.114;13.128;2023-07-02T14:01:48;98822.00;;;28.20
12875;BMP180;6505;51.114;13.128;2023-07-02T14:04:17;98820.00;;;28.20
12875;BMP180;6505;51.114;13.128;2023-07-02T14:06:45;98824.00;;;28.20
12875;BMP180;6505;51.114;13.128;2023-07-02T14:09:13;98824.00;;;28.20
12875;BMP180;6505;51.114;13.128;2023-07-02T14:11:42;98828.00;;;28.20
12875;BMP180;6505;51.114;13.128;2023-07-02T14:14:11;98828.00;;;28.20
12875;BMP180;6505;51.114;13.128;2023-07-02T14:16:40;98832.00;;;28.20
12875;BMP180;6505;51.114;13.128;2023-07-02T14:19:09;98837.00;;;28.20
12875;BMP180;6505;51.114;13.128;2023-07-02T14:21:36;98839.00;;;28.20